TimeEDT,TemperatureF,Dew PointF,Humidity,Sea Level PressureIn,VisibilityMPH,Wind Direction,Wind SpeedMPH,Gust SpeedMPH,PrecipitationIn,Events,Conditions,WindDirDegrees,DateUTC
12:15 AM,78.1,65.7,65,29.94,10.0,West,5.8,-,N/A,,Light Drizzle,270,2013-06-17 04:15:00
12:35 AM,77.7,65.7,66,29.93,10.0,West,4.6,-,N/A,Rain,Light Rain,270,2013-06-17 04:35:00
12:55 AM,77.2,65.5,67,29.94,10.0,West,5.8,-,N/A,,Mostly Cloudy,260,2013-06-17 04:55:00
1:15 AM,76.6,65.7,69,29.94,10.0,SW,5.8,-,N/A,,Overcast,230,2013-06-17 05:15:00
1:35 AM,76.1,65.8,70,29.94,10.0,WSW,5.8,-,N/A,,Overcast,250,2013-06-17 05:35:00
1:55 AM,75.6,66.2,73,29.94,10.0,WSW,6.9,-,N/A,,Unknown,240,2013-06-17 05:55:00
2:15 AM,74.8,66.7,76,29.94,10.0,WSW,8.1,-,N/A,,Overcast,240,2013-06-17 06:15:00
2:35 AM,75.0,66.6,75,29.94,10.0,WSW,8.1,-,N/A,,Overcast,240,2013-06-17 06:35:00
2:55 AM,75.6,66.2,73,29.94,10.0,WSW,5.8,-,N/A,,Unknown,240,2013-06-17 06:55:00
3:15 AM,75.2,66.2,73,29.94,10.0,WSW,4.6,-,N/A,,Unknown,240,2013-06-17 07:15:00
3:35 AM,75.2,66.2,73,29.94,10.0,SW,5.8,-,N/A,,Unknown,230,2013-06-17 07:35:00
3:55 AM,74.7,66.2,75,29.94,10.0,Calm,Calm,-,N/A,,Unknown,0,2013-06-17 07:55:00
4:15 AM,74.7,66.4,75,29.94,10.0,Calm,Calm,-,N/A,,Unknown,0,2013-06-17 08:15:00
4:35 AM,74.3,66.6,77,29.94,10.0,Calm,Calm,-,N/A,Rain,Light Rain,0,2013-06-17 08:35:00
4:55 AM,73.9,66.7,78,29.94,10.0,Calm,Calm,-,N/A,,Unknown,0,2013-06-17 08:55:00
5:15 AM,74.1,67.1,79,29.94,10.0,Calm,Calm,-,N/A,,Unknown,0,2013-06-17 09:15:00
5:35 AM,73.8,67.1,80,29.95,10.0,SSW,3.5,-,N/A,,Unknown,210,2013-06-17 09:35:00
5:55 AM,73.6,67.1,80,29.95,10.0,Calm,Calm,-,N/A,,Unknown,0,2013-06-17 09:55:00
6:15 AM,73.4,67.1,81,29.95,10.0,Calm,Calm,-,N/A,,Unknown,0,2013-06-17 10:15:00
6:35 AM,73.6,67.1,80,29.95,10.0,SW,5.8,-,N/A,,Unknown,220,2013-06-17 10:35:00
6:55 AM,73.6,67.1,80,29.96,10.0,Calm,Calm,-,N/A,,Unknown,0,2013-06-17 10:55:00
7:15 AM,73.6,67.3,81,29.96,10.0,SSW,3.5,-,N/A,,Unknown,200,2013-06-17 11:15:00
7:35 AM,73.4,67.5,82,29.97,10.0,SW,3.5,-,N/A,,Unknown,220,2013-06-17 11:35:00
7:55 AM,73.6,67.6,82,29.98,10.0,SSW,3.5,-,N/A,,Unknown,210,2013-06-17 11:55:00
8:15 AM,74.3,68.0,81,29.97,10.0,SW,3.5,-,N/A,,Unknown,220,2013-06-17 12:15:00
8:35 AM,74.7,68.2,80,29.98,10.0,Calm,Calm,-,N/A,,Unknown,0,2013-06-17 12:35:00
8:55 AM,74.7,68.0,80,29.98,10.0,SW,4.6,-,N/A,,Unknown,220,2013-06-17 12:55:00
9:15 AM,75.0,67.8,78,29.97,10.0,Calm,Calm,-,N/A,,Unknown,0,2013-06-17 13:15:00
9:35 AM,76.1,68.4,77,29.97,10.0,SW,3.5,-,N/A,,Unknown,220,2013-06-17 13:35:00
9:55 AM,77.2,68.0,73,29.97,10.0,West,5.8,-,N/A,,Unknown,260,2013-06-17 13:55:00
10:15 AM,78.3,68.9,73,29.96,10.0,Calm,Calm,-,N/A,,Scattered Clouds,0,2013-06-17 14:15:00
10:35 AM,78.4,68.0,70,29.96,10.0,Calm,Calm,-,N/A,,Scattered Clouds,0,2013-06-17 14:35:00
10:55 AM,78.6,68.0,70,29.96,10.0,West,4.6,-,N/A,,Clear,280,2013-06-17 14:55:00
11:15 AM,79.0,68.4,70,29.95,10.0,Calm,Calm,-,N/A,,Clear,0,2013-06-17 15:15:00
12:15 PM,-9999,-9999,N/A,29.95,-9999.0,Calm,Calm,-,N/A,,Unknown,0,2013-06-17 16:15:00
12:17 PM,82.4,66.2,58,29.94,-9999.0,Calm,Calm,-,N/A,,Unknown,0,2013-06-17 16:17:00
12:35 PM,84.0,67.5,57,29.94,10.0,South,3.5,-,N/A,,Clear,170,2013-06-17 16:35:00
12:55 PM,84.9,68.4,57,29.94,10.0,Calm,Calm,-,N/A,,Scattered Clouds,0,2013-06-17 16:55:00
1:15 PM,84.6,67.5,56,29.94,10.0,SSW,4.6,-,N/A,,Scattered Clouds,200,2013-06-17 17:15:00
1:35 PM,84.2,68.4,59,29.94,10.0,South,4.6,-,N/A,,Scattered Clouds,190,2013-06-17 17:35:00
1:55 PM,86.0,68.4,55,29.94,10.0,SSW,3.5,-,N/A,,Scattered Clouds,200,2013-06-17 17:55:00
2:15 PM,86.9,67.1,52,29.93,10.0,WSW,3.5,-,N/A,,Scattered Clouds,240,2013-06-17 18:15:00
2:35 PM,87.6,66.4,49,29.92,10.0,WSW,6.9,-,N/A,,Scattered Clouds,250,2013-06-17 18:35:00
2:55 PM,86.9,67.1,52,29.92,10.0,SSW,4.6,-,N/A,,Scattered Clouds,210,2013-06-17 18:55:00
3:15 PM,87.1,66.2,50,29.91,10.0,SSW,4.6,-,N/A,,Scattered Clouds,200,2013-06-17 19:15:00
3:35 PM,86.7,65.3,49,29.90,10.0,South,3.5,-,N/A,,Scattered Clouds,190,2013-06-17 19:35:00
3:55 PM,87.6,66.2,49,29.89,10.0,South,5.8,-,N/A,,Scattered Clouds,190,2013-06-17 19:55:00
4:15 PM,87.4,65.7,48,29.89,10.0,South,6.9,-,N/A,,Scattered Clouds,180,2013-06-17 20:15:00
4:35 PM,88.5,65.5,46,29.89,10.0,SSW,4.6,-,N/A,,Scattered Clouds,200,2013-06-17 20:35:00
4:55 PM,88.3,65.8,47,29.89,10.0,SSW,4.6,-,N/A,,Scattered Clouds,200,2013-06-17 20:55:00
5:15 PM,86.9,66.2,50,29.89,10.0,South,5.8,-,N/A,,Scattered Clouds,180,2013-06-17 21:15:00
5:35 PM,85.8,69.3,58,29.89,10.0,South,6.9,-,N/A,,Scattered Clouds,170,2013-06-17 21:35:00
5:55 PM,84.6,69.8,61,29.88,10.0,South,5.8,-,N/A,,Clear,170,2013-06-17 21:55:00
6:15 PM,85.3,70.7,62,29.88,10.0,South,5.8,-,N/A,,Clear,180,2013-06-17 22:15:00
6:35 PM,86.2,70.2,59,29.89,10.0,South,5.8,-,N/A,,Clear,180,2013-06-17 22:35:00
6:55 PM,85.5,70.0,60,29.89,10.0,South,9.2,-,N/A,,Clear,170,2013-06-17 22:55:00
7:15 PM,84.4,70.7,63,29.88,10.0,South,6.9,-,N/A,,Clear,170,2013-06-17 23:15:00
7:35 PM,84.4,70.9,64,29.89,10.0,South,6.9,-,N/A,,Clear,190,2013-06-17 23:35:00
7:55 PM,82.9,70.7,66,29.89,10.0,SSW,6.9,-,N/A,,Clear,210,2013-06-17 23:55:00
8:15 PM,82.4,70.0,66,29.90,10.0,SSW,5.8,-,N/A,,Clear,200,2013-06-18 00:15:00
8:35 PM,81.5,70.0,68,29.90,10.0,SSW,6.9,-,N/A,,Clear,200,2013-06-18 00:35:00
8:55 PM,80.2,70.0,71,29.91,10.0,South,3.5,-,N/A,,Clear,170,2013-06-18 00:55:00
9:15 PM,79.7,70.3,73,29.91,10.0,East,3.5,-,N/A,,Clear,90,2013-06-18 01:15:00
9:35 PM,79.7,70.7,74,29.91,10.0,Calm,Calm,-,N/A,,Clear,0,2013-06-18 01:35:00
9:55 PM,77.4,70.9,80,29.91,10.0,Calm,Calm,-,N/A,,Clear,0,2013-06-18 01:55:00
10:15 PM,76.8,70.7,81,29.92,10.0,Calm,Calm,-,N/A,,Clear,0,2013-06-18 02:15:00
10:35 PM,76.3,70.7,83,29.93,10.0,WSW,3.5,-,N/A,,Clear,240,2013-06-18 02:35:00
10:55 PM,75.7,70.7,84,29.94,10.0,WSW,5.8,-,N/A,,Clear,250,2013-06-18 02:55:00
11:15 PM,76.3,69.3,79,29.94,10.0,WSW,5.8,-,N/A,,Clear,250,2013-06-18 03:15:00
11:35 PM,76.3,66.7,72,29.93,10.0,SW,4.6,-,N/A,,Clear,220,2013-06-18 03:35:00
11:55 PM,76.1,66.4,72,29.93,10.0,SW,3.5,-,N/A,,Clear,230,2013-06-18 03:55:00